Royse City's Hourly Summary for Saturday, July 7, 2018
Hour Temp
(f)
RH
(%)
Solar Rad.
(MJ/m2)
Rainfall
(in)
Wind
(mph)
7/7/2018 12:00 AM 76 79 0 0 0.1
7/7/2018 1:00 AM 75 83 0 0 0.08
7/7/2018 2:00 AM 74 86 0 0 0.1
7/7/2018 3:00 AM 73 92 0 0 0
7/7/2018 4:00 AM 73 95 0 0 0
7/7/2018 5:00 AM 72 99 0 0 0
7/7/2018 6:00 AM 71 99 0 0 0
7/7/2018 7:00 AM 71 99 0.04 0 0
7/7/2018 8:00 AM 73 83 0.46 0 0
7/7/2018 9:00 AM 77 74 1.14 0 0
7/7/2018 10:00 AM 80 66 1.76 0 0
7/7/2018 11:00 AM 84 58 2.47 0 0
7/7/2018 12:00 PM 87 54 2.9 0 0
7/7/2018 1:00 PM 88 49 2.91 0 0
7/7/2018 2:00 PM 90 44 2.99 0 0
7/7/2018 3:00 PM 91 40 2.41 0 0
7/7/2018 4:00 PM 93 35 2.73 0 0
7/7/2018 5:00 PM 91 37 1.44 0 0.72
7/7/2018 6:00 PM 90 39 1.52 0 0.08
7/7/2018 7:00 PM 91 40 1.05 0 0
7/7/2018 8:00 PM 89 43 0.43 0 0
7/7/2018 9:00 PM 86 51 0.04 0 0.11
7/7/2018 10:00 PM 76 70 0 0.01 0.92
7/7/2018 11:00 PM 75 86 0 0 0.01
Data Summary 81 66 24.29 0.01 0.09